sensor_id;sensor_type;location;lat;lon;timestamp;temperature;humidity
56234;DHT22;42141;53.240;6.580;2023-05-21T00:00:58;14.00;99.90
56234;DHT22;42141;53.240;6.580;2023-05-21T00:03:25;14.00;99.90
56234;DHT22;42141;53.240;6.580;2023-05-21T00:05:52;14.00;99.90
56234;DHT22;42141;53.240;6.580;2023-05-21T00:08:19;14.00;99.90
56234;DHT22;42141;53.240;6.580;2023-05-21T00:10:45;14.00;99.90
56234;DHT22;42141;53.240;6.580;2023-05-21T00:13:11;14.00;99.90
56234;DHT22;42141;53.240;6.580;2023-05-21T00:15:37;14.10;99.90
56234;DHT22;42141;53.240;6.580;2023-05-21T00:18:03;13.90;99.90
56234;DHT22;42141;53.240;6.580;2023-05-21T00:20:29;13.90;99.90
56234;DHT22;42141;53.240;6.580;2023-05-21T00:22:57;13.90;99.90
56234;DHT22;42141;53.240;6.580;2023-05-21T00:25:23;13.90;99.90
56234;DHT22;42141;53.240;6.580;2023-05-21T00:27:48;13.90;99.90
56234;DHT22;42141;53.240;6.580;2023-05-21T00:30:14;13.90;99.90
56234;DHT22;42141;53.240;6.580;2023-05-21T00:32:41;13.90;99.90
56234;DHT22;42141;53.240;6.580;2023-05-21T00:35:07;13.90;99.90
56234;DHT22;42141;53.240;6.580;2023-05-21T00:37:33;13.90;99.90
56234;DHT22;42141;53.240;6.580;2023-05-21T00:40:03;13.90;99.90
56234;DHT22;42141;53.240;6.580;2023-05-21T00:42:35;13.90;99.90
56234;DHT22;42141;53.240;6.580;2023-05-21T00:45:06;13.90;99.90
56234;DHT22;42141;53.240;6.580;2023-05-21T00:47:33;13.90;99.90
56234;DHT22;42141;53.240;6.580;2023-05-21T00:50:02;13.90;99.90
56234;DHT22;42141;53.240;6.580;2023-05-21T00:52:28;13.90;99.90
56234;DHT22;42141;53.240;6.580;2023-05-21T00:54:54;13.90;99.90
56234;DHT22;42141;53.240;6.580;2023-05-21T00:57:21;13.90;99.90
56234;DHT22;42141;53.240;6.580;2023-05-21T00:59:51;13.90;99.90
56234;DHT22;42141;53.240;6.580;2023-05-21T01:02:17;13.90;99.90
56234;DHT22;42141;53.240;6.580;2023-05-21T01:04:44;13.90;99.90
56234;DHT22;42141;53.240;6.580;2023-05-21T01:07:10;13.90;99.90
56234;DHT22;42141;53.240;6.580;2023-05-21T01:09:37;13.90;99.90
56234;DHT22;42141;53.240;6.580;2023-05-21T01:12:04;13.90;99.90
56234;DHT22;42141;53.240;6.580;2023-05-21T01:14:30;13.90;99.90
56234;DHT22;42141;53.240;6.580;2023-05-21T01:16:57;13.90;99.90
56234;DHT22;42141;53.240;6.580;2023-05-21T01:19:24;13.90;99.90
56234;DHT22;42141;53.240;6.580;2023-05-21T01:21:52;13.90;99.90
56234;DHT22;42141;53.240;6.580;2023-05-21T01:24:20;13.90;99.90
56234;DHT22;42141;53.240;6.580;2023-05-21T01:26:46;13.90;99.90
56234;DHT22;42141;53.240;6.580;2023-05-21T01:29:13;13.90;99.90
56234;DHT22;42141;53.240;6.580;2023-05-21T01:40:07;13.90;99.90
56234;DHT22;42141;53.240;6.580;2023-05-21T01:42:35;13.80;99.90
56234;DHT22;42141;53.240;6.580;2023-05-21T01:45:02;13.80;99.90
56234;DHT22;42141;53.240;6.580;2023-05-21T01:47:31;13.80;99.90
56234;DHT22;42141;53.240;6.580;2023-05-21T01:49:58;13.80;99.90
56234;DHT22;42141;53.240;6.580;2023-05-21T01:52:24;13.80;99.90
56234;DHT22;42141;53.240;6.580;2023-05-21T01:54:50;13.80;99.90
56234;DHT22;42141;53.240;6.580;2023-05-21T01:57:19;13.80;99.90
56234;DHT22;42141;53.240;6.580;2023-05-21T01:59:44;13.80;99.90
56234;DHT22;42141;53.240;6.580;2023-05-21T02:02:12;12.70;99.90
56234;DHT22;42141;53.240;6.580;2023-05-21T02:04:38;13.80;99.90
56234;DHT22;42141;53.240;6.580;2023-05-21T02:07:06;13.80;99.90
56234;DHT22;42141;53.240;6.580;2023-05-21T02:09:31;13.80;99.90
56234;DHT22;42141;53.240;6.580;2023-05-21T02:11:57;13.80;99.90
56234;DHT22;42141;53.240;6.580;2023-05-21T02:14:23;13.80;99.90
56234;DHT22;42141;53.240;6.580;2023-05-21T02:16:51;13.70;99.90
56234;DHT22;42141;53.240;6.580;2023-05-21T02:19:17;13.70;99.90
56234;DHT22;42141;53.240;6.580;2023-05-21T02:21:43;13.70;99.90
56234;DHT22;42141;53.240;6.580;2023-05-21T02:24:09;13.60;99.90
56234;DHT22;42141;53.240;6.580;2023-05-21T02:26:35;13.60;99.90
56234;DHT22;42141;53.240;6.580;2023-05-21T02:29:02;13.50;99.90
56234;DHT22;42141;53.240;6.580;2023-05-21T02:31:28;13.50;99.90
56234;DHT22;42141;53.240;6.580;2023-05-21T02:33:54;13.40;99.90
56234;DHT22;42141;53.240;6.580;2023-05-21T02:36:20;13.40;99.90
56234;DHT22;42141;53.240;6.580;2023-05-21T02:38:46;13.30;99.90
56234;DHT22;42141;53.240;6.580;2023-05-21T02:41:12;13.20;99.90
56234;DHT22;42141;53.240;6.580;2023-05-21T02:43:38;13.20;99.90
56234;DHT22;42141;53.240;6.580;2023-05-21T02:46:05;13.10;99.90
56234;DHT22;42141;53.240;6.580;2023-05-21T02:48:31;13.10;99.90
56234;DHT22;42141;53.240;6.580;2023-05-21T02:50:57;13.00;99.90
56234;DHT22;42141;53.240;6.580;2023-05-21T02:53:23;13.10;99.90
56234;DHT22;42141;53.240;6.580;2023-05-21T02:55:49;13.00;99.90
56234;DHT22;42141;53.240;6.580;2023-05-21T02:58:15;13.00;99.90
56234;DHT22;42141;53.240;6.580;2023-05-21T03:00:41;13.00;99.90
56234;DHT22;42141;53.240;6.580;2023-05-21T03:03:06;13.00;99.90
56234;DHT22;42141;53.240;6.580;2023-05-21T03:05:32;13.00;99.90
56234;DHT22;42141;53.240;6.580;2023-05-21T03:07:58;13.00;99.90
56234;DHT22;42141;53.240;6.580;2023-05-21T03:10:23;13.00;99.90
56234;DHT22;42141;53.240;6.580;2023-05-21T03:12:49;13.00;99.90
56234;DHT22;42141;53.240;6.580;2023-05-21T03:15:15;13.00;99.90
56234;DHT22;42141;53.240;6.580;2023-05-21T03:17:41;13.00;99.90
56234;DHT22;42141;53.240;6.580;2023-05-21T03:20:09;13.00;99.90
56234;DHT22;42141;53.240;6.580;2023-05-21T03:22:42;13.00;99.90
56234;DHT22;42141;53.240;6.580;2023-05-21T03:25:09;13.00;99.90
56234;DHT22;42141;53.240;6.580;2023-05-21T03:27:36;13.00;99.90
56234;DHT22;42141;53.240;6.580;2023-05-21T03:30:02;13.00;99.90
56234;DHT22;42141;53.240;6.580;2023-05-21T03:32:28;12.90;99.90
56234;DHT22;42141;53.240;6.580;2023-05-21T03:34:53;12.90;99.90
56234;DHT22;42141;53.240;6.580;2023-05-21T03:37:19;12.90;99.90
56234;DHT22;42141;53.240;6.580;2023-05-21T03:39:45;12.90;99.90
56234;DHT22;42141;53.240;6.580;2023-05-21T03:42:10;12.90;99.90
56234;DHT22;42141;53.240;6.580;2023-05-21T03:44:38;12.90;99.90
56234;DHT22;42141;53.240;6.580;2023-05-21T03:47:04;13.80;99.90
56234;DHT22;42141;53.240;6.580;2023-05-21T03:49:29;12.90;99.90
56234;DHT22;42141;53.240;6.580;2023-05-21T03:51:55;12.90;99.90
56234;DHT22;42141;53.240;6.580;2023-05-21T03:54:21;13.30;99.90
56234;DHT22;42141;53.240;6.580;2023-05-21T03:56:46;12.90;99.90
56234;DHT22;42141;53.240;6.580;2023-05-21T03:59:12;12.90;99.90
56234;DHT22;42141;53.240;6.580;2023-05-21T04:01:38;12.90;99.90
56234;DHT22;42141;53.240;6.580;2023-05-21T04:04:04;12.90;99.90
56234;DHT22;42141;53.240;6.580;2023-05-21T04:06:30;12.90;99.90
56234;DHT22;42141;53.240;6.580;2023-05-21T04:08:55;12.90;99.90
56234;DHT22;42141;53.240;6.580;2023-05-21T04:11:21;12.90;99.90
56234;DHT22;42141;53.240;6.580;2023-05-21T04:13:47;13.00;99.90
56234;DHT22;42141;53.240;6.580;2023-05-21T04:16:13;13.00;99.90
56234;DHT22;42141;53.240;6.580;2023-05-21T04:18:39;13.00;99.90
56234;DHT22;42141;53.240;6.580;2023-05-21T04:21:06;13.00;99.90
56234;DHT22;42141;53.240;6.580;2023-05-21T04:23:32;13.00;99.90
56234;DHT22;42141;53.240;6.580;2023-05-21T04:26:01;13.00;99.90
56234;DHT22;42141;53.240;6.580;2023-05-21T04:28:27;13.00;99.90
56234;DHT22;42141;53.240;6.580;2023-05-21T04:30:53;13.00;99.90
56234;DHT22;42141;53.240;6.580;2023-05-21T04:33:21;13.00;99.90
56234;DHT22;42141;53.240;6.580;2023-05-21T04:35:49;13.00;99.90
56234;DHT22;42141;53.240;6.580;2023-05-21T04:38:16;13.10;99.90
56234;DHT22;42141;53.240;6.580;2023-05-21T04:40:49;13.10;99.90
56234;DHT22;42141;53.240;6.580;2023-05-21T04:43:17;13.20;99.90
56234;DHT22;42141;53.240;6.580;2023-05-21T04:45:42;13.20;99.90
56234;DHT22;42141;53.240;6.580;2023-05-21T04:48:08;13.20;99.90
56234;DHT22;42141;53.240;6.580;2023-05-21T04:50:34;13.30;99.90
56234;DHT22;42141;53.240;6.580;2023-05-21T04:53:00;13.30;99.90
56234;DHT22;42141;53.240;6.580;2023-05-21T04:55:27;13.40;99.90
56234;DHT22;42141;53.240;6.580;2023-05-21T04:57:53;13.40;99.90
56234;DHT22;42141;53.240;6.580;2023-05-21T05:00:19;13.50;99.90
56234;DHT22;42141;53.240;6.580;2023-05-21T05:02:45;13.50;99.90
56234;DHT22;42141;53.240;6.580;2023-05-21T05:05:11;13.50;99.90
56234;DHT22;42141;53.240;6.580;2023-05-21T05:07:36;13.50;99.90
56234;DHT22;42141;53.240;6.580;2023-05-21T05:10:02;13.60;99.90
56234;DHT22;42141;53.240;6.580;2023-05-21T05:12:28;13.60;99.90
56234;DHT22;42141;53.240;6.580;2023-05-21T05:14:54;13.60;99.90
56234;DHT22;42141;53.240;6.580;2023-05-21T05:17:19;13.70;99.90
56234;DHT22;42141;53.240;6.580;2023-05-21T05:19:45;13.70;99.90
56234;DHT22;42141;53.240;6.580;2023-05-21T05:22:11;13.90;99.90
56234;DHT22;42141;53.240;6.580;2023-05-21T05:24:36;13.90;99.90
56234;DHT22;42141;53.240;6.580;2023-05-21T05:27:02;14.00;99.90
56234;DHT22;42141;53.240;6.580;2023-05-21T05:29:28;14.10;99.90
56234;DHT22;42141;53.240;6.580;2023-05-21T05:31:53;14.10;99.90
56234;DHT22;42141;53.240;6.580;2023-05-21T05:34:19;14.20;99.90
56234;DHT22;42141;53.240;6.580;2023-05-21T05:36:45;14.30;99.90
56234;DHT22;42141;53.240;6.580;2023-05-21T05:39:11;14.40;99.90
56234;DHT22;42141;53.240;6.580;2023-05-21T05:41:37;14.50;99.90
56234;DHT22;42141;53.240;6.580;2023-05-21T05:44:02;14.50;99.90
56234;DHT22;42141;53.240;6.580;2023-05-21T05:46:28;14.60;99.90
56234;DHT22;42141;53.240;6.580;2023-05-21T05:48:54;14.70;99.90
56234;DHT22;42141;53.240;6.580;2023-05-21T05:51:20;14.80;99.90
56234;DHT22;42141;53.240;6.580;2023-05-21T05:53:45;15.50;99.90
56234;DHT22;42141;53.240;6.580;2023-05-21T05:56:11;14.90;99.90
56234;DHT22;42141;53.240;6.580;2023-05-21T05:58:37;14.90;99.90
56234;DHT22;42141;53.240;6.580;2023-05-21T06:01:02;15.00;99.90
56234;DHT22;42141;53.240;6.580;2023-05-21T06:03:28;15.00;99.90
56234;DHT22;42141;53.240;6.580;2023-05-21T06:05:54;15.00;99.90
56234;DHT22;42141;53.240;6.580;2023-05-21T06:08:20;15.10;99.90
56234;DHT22;42141;53.240;6.580;2023-05-21T06:10:45;15.10;99.90
56234;DHT22;42141;53.240;6.580;2023-05-21T06:13:11;15.10;99.90
56234;DHT22;42141;53.240;6.580;2023-05-21T06:15:37;15.10;99.90
56234;DHT22;42141;53.240;6.580;2023-05-21T06:18:03;15.10;99.90
56234;DHT22;42141;53.240;6.580;2023-05-21T06:20:29;15.20;99.90
56234;DHT22;42141;53.240;6.580;2023-05-21T06:22:55;15.20;99.90
56234;DHT22;42141;53.240;6.580;2023-05-21T06:25:20;15.20;99.90
56234;DHT22;42141;53.240;6.580;2023-05-21T06:27:46;15.10;99.90
56234;DHT22;42141;53.240;6.580;2023-05-21T06:30:12;15.20;99.90
56234;DHT22;42141;53.240;6.580;2023-05-21T06:32:38;15.30;99.90
56234;DHT22;42141;53.240;6.580;2023-05-21T06:35:04;15.40;99.90
56234;DHT22;42141;53.240;6.580;2023-05-21T06:37:30;15.40;99.90
56234;DHT22;42141;53.240;6.580;2023-05-21T06:39:55;15.40;99.90
56234;DHT22;42141;53.240;6.580;2023-05-21T06:42:21;15.60;99.90
56234;DHT22;42141;53.240;6.580;2023-05-21T06:44:47;15.60;99.90
56234;DHT22;42141;53.240;6.580;2023-05-21T06:47:12;15.60;99.90
56234;DHT22;42141;53.240;6.580;2023-05-21T06:49:38;15.60;99.90
56234;DHT22;42141;53.240;6.580;2023-05-21T06:52:04;15.60;99.90
56234;DHT22;42141;53.240;6.580;2023-05-21T06:54:29;15.70;99.90
56234;DHT22;42141;53.240;6.580;2023-05-21T06:56:55;15.80;99.90
56234;DHT22;42141;53.240;6.580;2023-05-21T06:59:21;15.90;99.90
56234;DHT22;42141;53.240;6.580;2023-05-21T07:01:46;16.00;99.90
56234;DHT22;42141;53.240;6.580;2023-05-21T07:04:12;16.10;99.90
56234;DHT22;42141;53.240;6.580;2023-05-21T07:06:38;16.10;99.90
56234;DHT22;42141;53.240;6.580;2023-05-21T07:09:04;16.20;99.90
56234;DHT22;42141;53.240;6.580;2023-05-21T07:11:33;16.20;99.90
56234;DHT22;42141;53.240;6.580;2023-05-21T07:13:59;16.30;99.90
56234;DHT22;42141;53.240;6.580;2023-05-21T07:16:25;16.40;99.90
56234;DHT22;42141;53.240;6.580;2023-05-21T07:18:51;16.50;99.90
56234;DHT22;42141;53.240;6.580;2023-05-21T07:21:16;16.50;99.90
56234;DHT22;42141;53.240;6.580;2023-05-21T07:23:42;16.50;99.90
56234;DHT22;42141;53.240;6.580;2023-05-21T07:26:09;16.50;99.90
56234;DHT22;42141;53.240;6.580;2023-05-21T07:28:34;16.40;99.90
56234;DHT22;42141;53.240;6.580;2023-05-21T07:31:00;16.40;99.90
56234;DHT22;42141;53.240;6.580;2023-05-21T07:33:26;16.30;99.90
56234;DHT22;42141;53.240;6.580;2023-05-21T07:35:52;16.30;99.90
56234;DHT22;42141;53.240;6.580;2023-05-21T07:38:18;16.30;99.90
56234;DHT22;42141;53.240;6.580;2023-05-21T07:40:44;16.30;99.90
56234;DHT22;42141;53.240;6.580;2023-05-21T07:43:09;16.30;99.90
56234;DHT22;42141;53.240;6.580;2023-05-21T07:45:35;16.40;99.90
56234;DHT22;42141;53.240;6.580;2023-05-21T07:48:01;16.50;99.90
56234;DHT22;42141;53.240;6.580;2023-05-21T07:50:27;16.50;99.90
56234;DHT22;42141;53.240;6.580;2023-05-21T07:52:52;16.50;99.90
56234;DHT22;42141;53.240;6.580;2023-05-21T07:55:18;16.50;99.90
56234;DHT22;42141;53.240;6.580;2023-05-21T07:57:44;16.50;99.90
56234;DHT22;42141;53.240;6.580;2023-05-21T08:00:10;16.60;99.90
56234;DHT22;42141;53.240;6.580;2023-05-21T08:02:39;16.70;99.90
56234;DHT22;42141;53.240;6.580;2023-05-21T08:05:04;16.80;99.90
56234;DHT22;42141;53.240;6.580;2023-05-21T08:07:30;16.90;99.90
56234;DHT22;42141;53.240;6.580;2023-05-21T08:09:57;16.90;99.90
56234;DHT22;42141;53.240;6.580;2023-05-21T08:12:23;16.90;99.90
56234;DHT22;42141;53.240;6.580;2023-05-21T08:14:49;16.90;99.90
56234;DHT22;42141;53.240;6.580;2023-05-21T08:17:15;17.00;99.90
56234;DHT22;42141;53.240;6.580;2023-05-21T08:19:41;17.00;99.90
56234;DHT22;42141;53.240;6.580;2023-05-21T08:22:06;17.10;99.90
56234;DHT22;42141;53.240;6.580;2023-05-21T08:24:32;17.20;99.90
56234;DHT22;42141;53.240;6.580;2023-05-21T08:26:58;17.30;99.90
56234;DHT22;42141;53.240;6.580;2023-05-21T08:29:24;17.40;99.90
56234;DHT22;42141;53.240;6.580;2023-05-21T08:31:50;17.40;99.90
56234;DHT22;42141;53.240;6.580;2023-05-21T08:34:16;17.40;99.90
56234;DHT22;42141;53.240;6.580;2023-05-21T08:36:43;17.40;99.90
56234;DHT22;42141;53.240;6.580;2023-05-21T08:39:11;17.40;99.90
56234;DHT22;42141;53.240;6.580;2023-05-21T08:41:40;17.40;99.90
56234;DHT22;42141;53.240;6.580;2023-05-21T08:44:11;17.50;99.90
56234;DHT22;42141;53.240;6.580;2023-05-21T08:46:39;17.50;99.90
56234;DHT22;42141;53.240;6.580;2023-05-21T08:49:11;17.60;99.90
56234;DHT22;42141;53.240;6.580;2023-05-21T08:51:37;17.70;99.90
56234;DHT22;42141;53.240;6.580;2023-05-21T08:54:04;17.70;99.90
56234;DHT22;42141;53.240;6.580;2023-05-21T08:56:34;17.60;99.90
56234;DHT22;42141;53.240;6.580;2023-05-21T08:59:01;17.60;99.90
56234;DHT22;42141;53.240;6.580;2023-05-21T09:01:27;17.60;99.90
56234;DHT22;42141;53.240;6.580;2023-05-21T09:03:56;17.60;99.90
56234;DHT22;42141;53.240;6.580;2023-05-21T09:06:22;17.70;99.90
56234;DHT22;42141;53.240;6.580;2023-05-21T09:08:58;17.80;99.90
56234;DHT22;42141;53.240;6.580;2023-05-21T09:11:25;18.00;99.90
56234;DHT22;42141;53.240;6.580;2023-05-21T09:13:51;18.20;99.90
56234;DHT22;42141;53.240;6.580;2023-05-21T09:16:18;18.20;99.90
56234;DHT22;42141;53.240;6.580;2023-05-21T09:18:43;18.40;99.90
56234;DHT22;42141;53.240;6.580;2023-05-21T09:21:26;18.40;99.90
56234;DHT22;42141;53.240;6.580;2023-05-21T09:23:56;18.50;99.90
56234;DHT22;42141;53.240;6.580;2023-05-21T09:26:22;18.50;99.90
56234;DHT22;42141;53.240;6.580;2023-05-21T09:28:49;18.50;99.90
56234;DHT22;42141;53.240;6.580;2023-05-21T09:31:15;18.60;99.90
56234;DHT22;42141;53.240;6.580;2023-05-21T09:33:46;18.60;99.90
56234;DHT22;42141;53.240;6.580;2023-05-21T09:36:17;18.70;99.90
56234;DHT22;42141;53.240;6.580;2023-05-21T09:38:45;18.80;99.90
56234;DHT22;42141;53.240;6.580;2023-05-21T09:41:11;18.80;99.90
56234;DHT22;42141;53.240;6.580;2023-05-21T09:43:36;18.90;99.90
56234;DHT22;42141;53.240;6.580;2023-05-21T09:46:02;18.90;99.90
56234;DHT22;42141;53.240;6.580;2023-05-21T09:48:36;19.00;99.90
56234;DHT22;42141;53.240;6.580;2023-05-21T09:51:12;19.20;99.90
56234;DHT22;42141;53.240;6.580;2023-05-21T09:53:52;19.30;99.90
56234;DHT22;42141;53.240;6.580;2023-05-21T09:56:23;19.30;99.90
56234;DHT22;42141;53.240;6.580;2023-05-21T09:59:02;19.20;99.90
56234;DHT22;42141;53.240;6.580;2023-05-21T10:01:31;19.20;99.90
56234;DHT22;42141;53.240;6.580;2023-05-21T10:04:06;19.10;99.90
56234;DHT22;42141;53.240;6.580;2023-05-21T10:06:42;19.10;99.90
56234;DHT22;42141;53.240;6.580;2023-05-21T10:09:14;19.10;99.90
56234;DHT22;42141;53.240;6.580;2023-05-21T10:11:43;19.30;99.90
56234;DHT22;42141;53.240;6.580;2023-05-21T10:14:18;19.20;99.90
56234;DHT22;42141;53.240;6.580;2023-05-21T10:16:46;19.30;99.90
56234;DHT22;42141;53.240;6.580;2023-05-21T10:19:14;19.50;99.90
56234;DHT22;42141;53.240;6.580;2023-05-21T10:21:40;19.40;99.90
56234;DHT22;42141;53.240;6.580;2023-05-21T10:24:08;19.40;99.90
56234;DHT22;42141;53.240;6.580;2023-05-21T10:26:34;19.40;99.90
56234;DHT22;42141;53.240;6.580;2023-05-21T10:29:01;18.70;99.90
56234;DHT22;42141;53.240;6.580;2023-05-21T10:31:28;19.40;99.90
56234;DHT22;42141;53.240;6.580;2023-05-21T10:33:54;19.40;99.90
56234;DHT22;42141;53.240;6.580;2023-05-21T10:36:20;19.60;99.90
56234;DHT22;42141;53.240;6.580;2023-05-21T10:38:48;19.80;99.90
56234;DHT22;42141;53.240;6.580;2023-05-21T10:41:17;19.90;99.90
56234;DHT22;42141;53.240;6.580;2023-05-21T10:52:02;19.90;99.90
56234;DHT22;42141;53.240;6.580;2023-05-21T10:54:34;19.90;99.90
56234;DHT22;42141;53.240;6.580;2023-05-21T11:00:02;19.90;99.90
56234;DHT22;42141;53.240;6.580;2023-05-21T11:02:30;20.10;99.90
56234;DHT22;42141;53.240;6.580;2023-05-21T11:05:00;20.20;99.90
56234;DHT22;42141;53.240;6.580;2023-05-21T11:07:52;20.20;99.90
56234;DHT22;42141;53.240;6.580;2023-05-21T11:10:34;20.20;99.90
56234;DHT22;42141;53.240;6.580;2023-05-21T11:13:07;20.20;99.90
56234;DHT22;42141;53.240;6.580;2023-05-21T11:21:11;20.10;99.90
56234;DHT22;42141;53.240;6.580;2023-05-21T11:26:17;20.10;99.90
56234;DHT22;42141;53.240;6.580;2023-05-21T11:28:43;20.40;99.90
56234;DHT22;42141;53.240;6.580;2023-05-21T11:31:25;20.40;99.90
56234;DHT22;42141;53.240;6.580;2023-05-21T11:39:49;20.30;99.90
56234;DHT22;42141;53.240;6.580;2023-05-21T11:42:29;20.10;99.90
56234;DHT22;42141;53.240;6.580;2023-05-21T11:44:56;20.10;99.90
56234;DHT22;42141;53.240;6.580;2023-05-21T11:47:26;20.20;99.90
56234;DHT22;42141;53.240;6.580;2023-05-21T11:49:52;20.40;99.90
56234;DHT22;42141;53.240;6.580;2023-05-21T11:52:18;20.60;99.90
56234;DHT22;42141;53.240;6.580;2023-05-21T11:54:46;20.70;99.90
56234;DHT22;42141;53.240;6.580;2023-05-21T11:57:20;20.80;99.90
56234;DHT22;42141;53.240;6.580;2023-05-21T11:59:47;20.80;99.90
56234;DHT22;42141;53.240;6.580;2023-05-21T12:02:14;20.90;99.90
56234;DHT22;42141;53.240;6.580;2023-05-21T12:04:45;20.90;99.90
56234;DHT22;42141;53.240;6.580;2023-05-21T12:07:12;20.90;99.90
56234;DHT22;42141;53.240;6.580;2023-05-21T12:09:47;20.80;99.90
56234;DHT22;42141;53.240;6.580;2023-05-21T12:12:21;20.90;99.90
56234;DHT22;42141;53.240;6.580;2023-05-21T12:14:52;20.80;99.90
56234;DHT22;42141;53.240;6.580;2023-05-21T12:17:22;20.80;99.90
56234;DHT22;42141;53.240;6.580;2023-05-21T12:19:53;20.80;99.90
56234;DHT22;42141;53.240;6.580;2023-05-21T12:22:19;20.70;99.90
56234;DHT22;42141;53.240;6.580;2023-05-21T12:24:45;20.70;99.90
56234;DHT22;42141;53.240;6.580;2023-05-21T12:27:12;20.80;99.90
56234;DHT22;42141;53.240;6.580;2023-05-21T12:29:43;20.80;99.90
56234;DHT22;42141;53.240;6.580;2023-05-21T12:32:10;20.90;99.90
56234;DHT22;42141;53.240;6.580;2023-05-21T12:34:41;20.90;99.90
56234;DHT22;42141;53.240;6.580;2023-05-21T12:37:10;21.00;99.90
56234;DHT22;42141;53.240;6.580;2023-05-21T12:39:38;21.00;99.90
56234;DHT22;42141;53.240;6.580;2023-05-21T12:42:04;21.20;99.90
56234;DHT22;42141;53.240;6.580;2023-05-21T12:44:30;21.20;99.90
56234;DHT22;42141;53.240;6.580;2023-05-21T12:46:57;21.30;99.90
56234;DHT22;42141;53.240;6.580;2023-05-21T12:49:39;21.30;99.90
56234;DHT22;42141;53.240;6.580;2023-05-21T12:52:10;21.30;99.90
56234;DHT22;42141;53.240;6.580;2023-05-21T12:54:38;21.30;99.90
56234;DHT22;42141;53.240;6.580;2023-05-21T12:57:07;21.20;99.90
56234;DHT22;42141;53.240;6.580;2023-05-21T13:05:00;20.90;99.90
56234;DHT22;42141;53.240;6.580;2023-05-21T13:07:28;21.20;99.90
56234;DHT22;42141;53.240;6.580;2023-05-21T13:09:55;21.30;99.90
56234;DHT22;42141;53.240;6.580;2023-05-21T13:12:22;21.40;99.90
56234;DHT22;42141;53.240;6.580;2023-05-21T13:14:53;21.60;99.90
56234;DHT22;42141;53.240;6.580;2023-05-21T13:17:20;21.60;99.90
56234;DHT22;42141;53.240;6.580;2023-05-21T13:22:31;21.40;99.90
56234;DHT22;42141;53.240;6.580;2023-05-21T13:24:57;21.30;99.90
56234;DHT22;42141;53.240;6.580;2023-05-21T13:27:23;21.50;99.90
56234;DHT22;42141;53.240;6.580;2023-05-21T13:29:49;21.80;99.90
56234;DHT22;42141;53.240;6.580;2023-05-21T13:32:14;22.00;99.90
56234;DHT22;42141;53.240;6.580;2023-05-21T13:34:40;22.10;99.90
56234;DHT22;42141;53.240;6.580;2023-05-21T13:37:06;22.30;99.90
56234;DHT22;42141;53.240;6.580;2023-05-21T13:39:31;22.40;99.90
56234;DHT22;42141;53.240;6.580;2023-05-21T13:41:57;22.50;99.90
56234;DHT22;42141;53.240;6.580;2023-05-21T13:44:23;22.70;99.90
56234;DHT22;42141;53.240;6.580;2023-05-21T13:46:50;22.70;99.90
56234;DHT22;42141;53.240;6.580;2023-05-21T13:49:16;22.60;99.90
56234;DHT22;42141;53.240;6.580;2023-05-21T13:51:41;22.60;99.90
56234;DHT22;42141;53.240;6.580;2023-05-21T13:54:07;22.70;99.90
56234;DHT22;42141;53.240;6.580;2023-05-21T13:56:33;22.60;99.90
56234;DHT22;42141;53.240;6.580;2023-05-21T13:58:59;22.50;99.90
56234;DHT22;42141;53.240;6.580;2023-05-21T14:01:25;22.50;99.90
56234;DHT22;42141;53.240;6.580;2023-05-21T14:03:51;22.60;99.90
56234;DHT22;42141;53.240;6.580;2023-05-21T14:06:17;22.90;99.90
56234;DHT22;42141;53.240;6.580;2023-05-21T14:08:42;23.10;99.90
56234;DHT22;42141;53.240;6.580;2023-05-21T14:11:08;23.10;99.90
56234;DHT22;42141;53.240;6.580;2023-05-21T14:13:34;23.20;99.90
56234;DHT22;42141;53.240;6.580;2023-05-21T14:15:59;23.10;99.90
56234;DHT22;42141;53.240;6.580;2023-05-21T14:18:25;22.90;99.90
56234;DHT22;42141;53.240;6.580;2023-05-21T14:20:52;22.80;99.90
56234;DHT22;42141;53.240;6.580;2023-05-21T14:23:18;22.90;99.90
56234;DHT22;42141;53.240;6.580;2023-05-21T14:25:44;23.00;99.90
56234;DHT22;42141;53.240;6.580;2023-05-21T14:28:09;23.10;99.90
56234;DHT22;42141;53.240;6.580;2023-05-21T14:30:35;23.20;99.90
56234;DHT22;42141;53.240;6.580;2023-05-21T14:33:01;23.20;99.90
56234;DHT22;42141;53.240;6.580;2023-05-21T14:35:26;23.30;99.90
56234;DHT22;42141;53.240;6.580;2023-05-21T14:37:52;23.60;99.90
56234;DHT22;42141;53.240;6.580;2023-05-21T14:40:19;23.70;99.90
56234;DHT22;42141;53.240;6.580;2023-05-21T14:42:44;23.90;99.90
56234;DHT22;42141;53.240;6.580;2023-05-21T14:45:10;24.00;99.90
56234;DHT22;42141;53.240;6.580;2023-05-21T14:47:36;24.10;99.90
56234;DHT22;42141;53.240;6.580;2023-05-21T14:50:02;24.20;99.90
56234;DHT22;42141;53.240;6.580;2023-05-21T14:52:28;24.10;99.90
56234;DHT22;42141;53.240;6.580;2023-05-21T14:54:53;24.10;99.90
56234;DHT22;42141;53.240;6.580;2023-05-21T14:57:19;24.10;99.90
56234;DHT22;42141;53.240;6.580;2023-05-21T14:59:45;24.30;99.90
56234;DHT22;42141;53.240;6.580;2023-05-21T15:02:11;24.50;99.90
56234;DHT22;42141;53.240;6.580;2023-05-21T15:04:37;24.50;99.90
56234;DHT22;42141;53.240;6.580;2023-05-21T15:07:03;24.60;99.90
56234;DHT22;42141;53.240;6.580;2023-05-21T15:09:28;24.70;99.90
56234;DHT22;42141;53.240;6.580;2023-05-21T15:11:54;24.80;99.90
56234;DHT22;42141;53.240;6.580;2023-05-21T15:14:20;24.90;99.90
56234;DHT22;42141;53.240;6.580;2023-05-21T15:16:45;25.00;99.90
56234;DHT22;42141;53.240;6.580;2023-05-21T15:19:11;24.90;99.90
56234;DHT22;42141;53.240;6.580;2023-05-21T15:21:37;24.80;99.90
56234;DHT22;42141;53.240;6.580;2023-05-21T15:24:03;24.80;99.90
56234;DHT22;42141;53.240;6.580;2023-05-21T15:26:29;24.70;99.90
56234;DHT22;42141;53.240;6.580;2023-05-21T15:28:54;24.80;99.90
56234;DHT22;42141;53.240;6.580;2023-05-21T15:31:20;24.80;99.90
56234;DHT22;42141;53.240;6.580;2023-05-21T15:33:46;24.90;99.90
56234;DHT22;42141;53.240;6.580;2023-05-21T15:36:12;24.90;99.90
56234;DHT22;42141;53.240;6.580;2023-05-21T15:38:37;24.80;99.90
56234;DHT22;42141;53.240;6.580;2023-05-21T15:41:04;24.90;99.90
56234;DHT22;42141;53.240;6.580;2023-05-21T15:43:30;24.80;99.90
56234;DHT22;42141;53.240;6.580;2023-05-21T15:45:57;24.70;99.90
56234;DHT22;42141;53.240;6.580;2023-05-21T15:48:22;24.70;99.90
56234;DHT22;42141;53.240;6.580;2023-05-21T15:50:48;24.50;99.90
56234;DHT22;42141;53.240;6.580;2023-05-21T15:53:14;24.40;99.90
56234;DHT22;42141;53.240;6.580;2023-05-21T15:55:40;24.40;99.90
56234;DHT22;42141;53.240;6.580;2023-05-21T15:58:05;24.40;99.90
56234;DHT22;42141;53.240;6.580;2023-05-21T16:00:31;24.30;99.90
56234;DHT22;42141;53.240;6.580;2023-05-21T16:02:57;24.20;99.90
56234;DHT22;42141;53.240;6.580;2023-05-21T16:05:22;24.10;99.90
56234;DHT22;42141;53.240;6.580;2023-05-21T16:07:48;24.20;99.90
56234;DHT22;42141;53.240;6.580;2023-05-21T16:10:14;24.10;99.90